Time;durP1;ratioP1;P1;durP2;ratioP2;P2;SDS_P1;SDS_P2;PMS_P1;PMS_P2;Temp;Humidity;BMP_temperature;BMP_pressure;BME280_temperature;BME280_humidity;BME280_pressure;Samples;Min_cycle;Max_cycle;Signal;HPM_P1;HPM_P2
2024/01/12 00:00:51;;;;;;;88.20;31.38;;;-5.10;99.90;;;;;;5019960;28;20052;-65
2024/01/12 00:03:18;;;;;;;70.25;27.60;;;-5.00;99.90;;;;;;5029964;28;20045;-65
2024/01/12 00:05:50;;;;;;;80.43;28.20;;;-5.00;99.90;;;;;;5023084;28;20050;-65
2024/01/12 00:08:17;;;;;;;84.07;31.52;;;-4.90;99.90;;;;;;5029369;28;20049;-65
2024/01/12 00:10:49;;;;;;;71.47;29.83;;;-4.90;99.90;;;;;;5021111;28;20410;-65
2024/01/12 00:13:22;;;;;;;80.43;28.30;;;-4.90;99.90;;;;;;5030680;28;20439;-65
2024/01/12 00:15:49;;;;;;;63.85;27.30;;;-4.80;99.90;;;;;;5028143;28;20557;-65
2024/01/12 00:18:21;;;;;;;74.82;30.20;;;-4.80;99.90;;;;;;5015092;28;20040;-65
2024/01/12 00:20:48;;;;;;;80.15;29.83;;;-4.70;99.90;;;;;;5012460;28;20038;-65
2024/01/12 00:23:20;;;;;;;76.72;31.35;;;-4.70;99.90;;;;;;5012799;28;20065;-65
2024/01/12 00:25:59;;;;;;;78.50;31.27;;;-4.70;99.90;;;;;;5028033;28;20084;-65
2024/01/12 00:28:32;;;;;;;79.07;29.80;;;-4.70;99.90;;;;;;5020569;28;20038;-65
2024/01/12 00:30:59;;;;;;;74.50;28.85;;;-4.70;99.90;;;;;;5047883;28;20022;-64
2024/01/12 00:33:31;;;;;;;71.60;28.98;;;-4.60;99.90;;;;;;5036044;28;20057;-65
2024/01/12 00:36:03;;;;;;;73.88;29.17;;;-4.60;99.90;;;;;;5020660;28;20052;-65
2024/01/12 00:38:35;;;;;;;69.43;28.63;;;-4.50;99.90;;;;;;5019242;28;20037;-65
2024/01/12 00:41:07;;;;;;;70.97;28.92;;;-4.50;99.90;;;;;;5028439;28;20038;-65
2024/01/12 00:43:39;;;;;;;72.15;28.30;;;-4.50;99.90;;;;;;5029374;28;20065;-66
2024/01/12 00:46:11;;;;;;;73.25;30.27;;;-4.50;99.90;;;;;;5035097;28;20045;-65
2024/01/12 00:48:43;;;;;;;68.85;28.33;;;-4.50;99.90;;;;;;5028920;28;20034;-65
2024/01/12 00:51:15;;;;;;;73.43;27.75;;;-4.50;99.90;;;;;;5027838;28;20046;-65
2024/01/12 00:53:42;;;;;;;77.82;28.40;;;-4.50;99.90;;;;;;5027216;28;20418;-65
2024/01/12 00:56:14;;;;;;;70.93;29.25;;;-4.50;99.90;;;;;;5025828;28;20048;-65
2024/01/12 00:58:46;;;;;;;74.30;29.42;;;-4.40;99.90;;;;;;5029191;28;20054;-65
2024/01/12 01:01:18;;;;;;;73.82;29.48;;;-4.40;99.90;;;;;;5035491;28;20056;-65
2024/01/12 01:03:50;;;;;;;84.75;31.08;;;-4.40;99.90;;;;;;5022846;28;20044;-65
2024/01/12 01:06:16;;;;;;;71.05;29.23;;;-4.30;99.90;;;;;;5029422;28;20046;-65
2024/01/12 01:08:48;;;;;;;71.47;29.05;;;-4.30;99.90;;;;;;5042593;28;20044;-65
2024/01/12 01:11:20;;;;;;;68.35;28.27;;;-4.30;99.90;;;;;;5029422;28;20414;-65
2024/01/12 01:13:53;;;;;;;88.20;30.95;;;-4.30;99.90;;;;;;5046139;28;20033;-65
2024/01/12 01:16:25;;;;;;;79.13;30.75;;;-4.30;99.90;;;;;;5031883;28;20095;-65
2024/01/12 01:18:57;;;;;;;78.13;32.10;;;-4.30;99.90;;;;;;5011897;28;20513;-65
2024/01/12 01:21:25;;;;;;;80.60;32.05;;;-4.30;99.90;;;;;;5011686;28;20056;-65
2024/01/12 01:23:57;;;;;;;77.43;31.42;;;-4.20;99.90;;;;;;5038129;28;20421;-65
2024/01/12 01:26:29;;;;;;;70.70;29.80;;;-4.20;99.90;;;;;;5025370;28;20418;-65
2024/01/12 01:29:01;;;;;;;77.20;29.65;;;-4.10;99.90;;;;;;5027091;28;20052;-65
2024/01/12 01:31:28;;;;;;;84.93;28.80;;;-4.10;99.90;;;;;;5017132;28;20053;-65
2024/01/12 01:33:55;;;;;;;72.30;31.08;;;-4.00;99.90;;;;;;5011680;28;20125;-65
2024/01/12 01:36:27;;;;;;;83.03;32.60;;;-4.00;99.90;;;;;;5014503;28;20046;-65
2024/01/12 01:38:59;;;;;;;84.72;29.67;;;-4.00;99.90;;;;;;5011530;28;20054;-65
2024/01/12 01:41:31;;;;;;;86.75;30.20;;;-4.00;99.90;;;;;;5011103;28;20046;-65
2024/01/12 01:44:03;;;;;;;76.25;27.30;;;-4.00;99.90;;;;;;5014420;28;20053;-65
2024/01/12 01:46:31;;;;;;;76.68;31.25;;;-4.00;99.90;;;;;;5016498;28;20046;-65
2024/01/12 01:49:03;;;;;;;76.87;28.97;;;-4.00;99.90;;;;;;5039542;28;20083;-65
2024/01/12 01:51:30;;;;;;;81.85;30.80;;;-4.10;99.90;;;;;;5019633;28;20045;-65
2024/01/12 01:54:02;;;;;;;76.10;29.70;;;-4.10;99.90;;;;;;5022054;28;20089;-65
2024/01/12 01:56:38;;;;;;;78.03;28.23;;;-4.10;99.90;;;;;;5036357;28;20410;-66
2024/01/12 01:59:11;;;;;;;77.60;30.25;;;-4.20;99.90;;;;;;5015360;28;20052;-65
2024/01/12 02:01:43;;;;;;;92.55;32.58;;;-4.20;99.90;;;;;;5016001;28;20141;-65
2024/01/12 02:04:11;;;;;;;85.97;29.63;;;-4.20;99.90;;;;;;5012925;28;20124;-65
2024/01/12 02:06:38;;;;;;;74.07;28.63;;;-4.20;99.90;;;;;;5026271;28;20042;-65
2024/01/12 02:09:06;;;;;;;82.28;30.83;;;-4.20;99.90;;;;;;5012950;28;20048;-65
2024/01/12 02:11:37;;;;;;;76.70;30.05;;;-4.10;99.90;;;;;;5010973;28;20042;-65
2024/01/12 02:14:09;;;;;;;79.95;29.25;;;-4.10;99.90;;;;;;5007321;28;20077;-65
2024/01/12 02:16:41;;;;;;;81.20;29.38;;;-4.10;99.90;;;;;;5031384;28;20034;-65
2024/01/12 02:19:13;;;;;;;78.38;30.23;;;-4.00;99.90;;;;;;5023907;28;20044;-65
2024/01/12 02:21:45;;;;;;;80.82;30.00;;;-4.00;99.90;;;;;;5026023;28;20502;-65
2024/01/12 02:24:12;;;;;;;85.55;31.63;;;-4.00;99.90;;;;;;5023636;28;20517;-65
2024/01/12 02:26:43;;;;;;;74.05;28.63;;;-4.10;99.90;;;;;;5027470;28;20042;-65
2024/01/12 02:29:10;;;;;;;78.28;28.40;;;-4.00;99.90;;;;;;5046733;28;20391;-66
2024/01/12 02:31:43;;;;;;;69.97;28.23;;;-4.10;99.90;;;;;;5047738;28;20041;-65
2024/01/12 02:34:15;;;;;;;74.70;29.92;;;-4.10;99.90;;;;;;5037192;28;20026;-64
2024/01/12 02:36:47;;;;;;;80.25;30.35;;;-4.10;99.90;;;;;;5036644;28;20050;-65
2024/01/12 02:39:14;;;;;;;70.15;29.92;;;-4.10;99.90;;;;;;5022460;28;20038;-65
2024/01/12 02:41:41;;;;;;;77.80;28.38;;;-4.00;99.90;;;;;;5042918;28;20432;-65
2024/01/12 02:44:09;;;;;;;76.30;27.90;;;-4.00;99.90;;;;;;5026022;28;20506;-65
2024/01/12 02:46:41;;;;;;;65.30;27.77;;;-4.10;99.90;;;;;;5014275;28;20050;-65
2024/01/12 02:49:08;;;;;;;64.88;26.63;;;-4.10;99.90;;;;;;5029341;28;20132;-65
2024/01/12 02:51:40;;;;;;;68.40;28.08;;;-4.10;99.90;;;;;;5032664;28;20044;-65
2024/01/12 02:54:07;;;;;;;67.22;27.58;;;-4.10;99.90;;;;;;5030147;28;20047;-65
2024/01/12 02:56:38;;;;;;;76.43;31.05;;;-4.20;99.90;;;;;;5046037;28;20107;-65
2024/01/12 02:59:10;;;;;;;72.32;28.30;;;-4.20;99.90;;;;;;5048095;28;20041;-65
2024/01/12 03:01:42;;;;;;;69.40;30.60;;;-4.20;99.90;;;;;;5031822;28;20129;-65
2024/01/12 03:04:09;;;;;;;67.25;28.23;;;-4.00;99.90;;;;;;5017986;28;20040;-65
2024/01/12 03:06:41;;;;;;;61.45;26.67;;;-4.00;99.90;;;;;;5019058;28;20048;-65
2024/01/12 03:09:08;;;;;;;79.57;29.55;;;-4.00;99.90;;;;;;5021054;28;20049;-65
2024/01/12 03:11:40;;;;;;;69.68;27.13;;;-4.00;99.90;;;;;;5030621;28;20057;-63
2024/01/12 03:14:12;;;;;;;66.38;25.73;;;-4.00;99.90;;;;;;5038287;28;20065;-63
2024/01/12 03:16:43;;;;;;;70.72;26.45;;;-4.10;99.90;;;;;;5035704;28;20111;-66
2024/01/12 03:19:11;;;;;;;75.03;30.38;;;-4.10;99.90;;;;;;5029290;28;20041;-65
2024/01/12 03:21:43;;;;;;;76.30;27.85;;;-4.10;99.90;;;;;;5031777;28;20623;-66
2024/01/12 03:24:15;;;;;;;71.18;29.27;;;-4.10;99.90;;;;;;5013881;28;20077;-65
2024/01/12 03:26:47;;;;;;;66.72;26.58;;;-4.10;99.90;;;;;;5014239;28;20038;-66
2024/01/12 03:29:19;;;;;;;66.43;25.60;;;-4.10;99.90;;;;;;5014819;28;20053;-66
2024/01/12 03:31:51;;;;;;;69.35;26.55;;;-4.10;99.90;;;;;;5018284;28;20050;-66
2024/01/12 03:34:23;;;;;;;62.83;25.58;;;-4.20;99.90;;;;;;5019659;28;20041;-66
2024/01/12 03:36:55;;;;;;;76.70;28.63;;;-4.10;99.90;;;;;;5022819;28;20781;-65
2024/01/12 03:39:27;;;;;;;66.55;25.50;;;-4.10;99.90;;;;;;5029283;28;20129;-66
2024/01/12 03:41:58;;;;;;;67.47;27.05;;;-4.10;99.90;;;;;;5013149;28;20052;-66
2024/01/12 03:44:30;;;;;;;74.90;26.80;;;-4.00;99.90;;;;;;5023348;28;20519;-66
2024/01/12 03:47:02;;;;;;;66.93;26.05;;;-4.00;99.90;;;;;;5022205;28;20061;-66
2024/01/12 03:49:34;;;;;;;66.45;27.15;;;-4.00;99.90;;;;;;5027740;28;20525;-66
2024/01/12 03:52:07;;;;;;;66.20;26.95;;;-3.90;99.90;;;;;;5028090;28;20069;-66
2024/01/12 03:54:39;;;;;;;66.07;27.13;;;-3.90;99.90;;;;;;5014962;28;20050;-65
2024/01/12 03:57:06;;;;;;;59.85;25.00;;;-3.90;99.90;;;;;;5016279;28;20045;-66
2024/01/12 03:59:32;;;;;;;70.05;27.15;;;-3.90;99.90;;;;;;5030220;28;20052;-65
2024/01/12 04:02:04;;;;;;;59.90;26.75;;;-4.00;99.90;;;;;;5023109;28;20049;-65
2024/01/12 04:04:36;;;;;;;68.28;27.55;;;-4.00;99.90;;;;;;5037587;28;20136;-66
2024/01/12 04:07:08;;;;;;;61.05;25.02;;;-4.00;99.90;;;;;;5023352;28;20070;-66
2024/01/12 04:09:41;;;;;;;63.45;27.42;;;-4.00;99.90;;;;;;5008819;28;20485;-66
2024/01/12 04:12:13;;;;;;;56.53;22.65;;;-4.10;99.90;;;;;;5027906;28;20042;-66
2024/01/12 04:14:45;;;;;;;60.92;26.25;;;-4.20;99.90;;;;;;5030880;28;20421;-65
2024/01/12 04:17:12;;;;;;;61.05;25.52;;;-4.20;99.90;;;;;;5031301;28;20041;-65
2024/01/12 04:19:44;;;;;;;62.47;27.10;;;-4.30;99.90;;;;;;5046618;28;20069;-66
2024/01/12 04:22:16;;;;;;;56.72;24.95;;;-4.40;99.90;;;;;;5042531;28;20114;-66
2024/01/12 04:24:48;;;;;;;57.40;24.92;;;-4.40;99.90;;;;;;5030626;28;20141;-66
2024/01/12 04:27:19;;;;;;;57.65;25.95;;;-4.40;99.90;;;;;;5024031;28;20413;-66
2024/01/12 04:29:52;;;;;;;61.10;24.95;;;-4.40;99.90;;;;;;5036449;28;20065;-66
2024/01/12 04:32:24;;;;;;;61.55;24.48;;;-4.40;99.90;;;;;;5026976;28;20116;-66
2024/01/12 04:34:56;;;;;;;58.42;25.80;;;-4.40;99.90;;;;;;5019398;28;20041;-66
2024/01/12 04:37:28;;;;;;;59.72;24.60;;;-4.50;99.90;;;;;;5021536;28;20121;-66
2024/01/12 04:39:59;;;;;;;56.45;24.30;;;-4.50;99.90;;;;;;5047194;28;20033;-66
2024/01/12 04:42:31;;;;;;;58.22;24.35;;;-4.60;99.90;;;;;;5040408;28;20789;-66
2024/01/12 04:45:04;;;;;;;58.33;23.98;;;-4.50;99.90;;;;;;5032008;28;20132;-66
2024/01/12 04:47:35;;;;;;;50.88;22.85;;;-4.60;99.90;;;;;;5029805;28;20045;-66
2024/01/12 04:50:08;;;;;;;54.33;23.60;;;-4.60;99.90;;;;;;5017016;28;20041;-66
2024/01/12 04:52:40;;;;;;;53.05;24.27;;;-4.60;99.90;;;;;;5029756;28;20422;-66
2024/01/12 04:55:12;;;;;;;54.70;21.83;;;-4.60;99.90;;;;;;5019876;28;20077;-66
2024/01/12 04:57:44;;;;;;;51.85;21.45;;;-4.60;99.90;;;;;;5037206;28;20469;-65
2024/01/12 05:00:16;;;;;;;50.50;22.13;;;-4.60;99.90;;;;;;5023873;28;20041;-66
2024/01/12 05:02:43;;;;;;;54.17;23.23;;;-4.60;99.90;;;;;;5025122;28;20037;-66
2024/01/12 05:05:14;;;;;;;48.08;22.60;;;-4.70;99.90;;;;;;5016281;28;20041;-66
2024/01/12 05:07:41;;;;;;;57.42;21.67;;;-4.70;99.90;;;;;;5027812;28;20052;-66
2024/01/12 05:10:13;;;;;;;54.08;22.23;;;-4.80;99.90;;;;;;5027046;28;20056;-66
2024/01/12 05:12:45;;;;;;;53.50;23.65;;;-4.90;99.90;;;;;;5027763;28;20049;-65
2024/01/12 05:15:17;;;;;;;52.33;22.65;;;-5.00;99.90;;;;;;5025422;28;20064;-65
2024/01/12 05:17:49;;;;;;;50.00;20.90;;;-5.00;99.90;;;;;;5026138;28;20048;-65
2024/01/12 05:20:21;;;;;;;55.05;24.20;;;-5.00;99.90;;;;;;5042694;28;20033;-65
2024/01/12 05:22:48;;;;;;;51.45;21.90;;;-5.00;99.90;;;;;;5027274;28;20561;-66
2024/01/12 05:25:20;;;;;;;55.20;22.92;;;-5.00;99.90;;;;;;5025893;28;20046;-66
2024/01/12 05:27:46;;;;;;;53.47;22.73;;;-5.10;99.90;;;;;;5026364;28;20059;-65
2024/01/12 05:30:13;;;;;;;52.70;22.02;;;-5.20;99.90;;;;;;5026312;28;20064;-66
2024/01/12 05:32:45;;;;;;;52.55;22.50;;;-5.20;99.90;;;;;;5024079;28;20141;-65
2024/01/12 05:35:17;;;;;;;56.13;23.85;;;-5.30;99.90;;;;;;5023684;28;20580;-65
2024/01/12 05:37:44;;;;;;;53.50;21.35;;;-5.30;99.90;;;;;;5018504;28;20041;-63
2024/01/12 05:40:16;;;;;;;59.38;22.35;;;-5.40;99.90;;;;;;5015437;28;20041;-66
2024/01/12 05:42:48;;;;;;;53.88;21.92;;;-5.40;99.90;;;;;;5017133;28;20565;-65
2024/01/12 05:45:19;;;;;;;49.75;20.90;;;-5.40;99.90;;;;;;5020617;28;20048;-66
2024/01/12 05:47:51;;;;;;;54.17;23.27;;;-5.40;99.90;;;;;;5026903;28;20099;-65
2024/01/12 05:50:23;;;;;;;53.55;23.02;;;-5.50;99.90;;;;;;5027834;28;20049;-65
2024/01/12 05:52:55;;;;;;;56.20;22.88;;;-5.40;99.90;;;;;;5031017;28;20130;-65
2024/01/12 05:55:21;;;;;;;55.95;23.17;;;-5.50;99.90;;;;;;5024529;28;20059;-65
2024/01/12 05:57:53;;;;;;;53.50;22.88;;;-5.50;99.90;;;;;;5025646;28;20147;-65
2024/01/12 06:00:25;;;;;;;56.45;21.58;;;-5.50;99.90;;;;;;5025069;28;20458;-65
2024/01/12 06:02:57;;;;;;;49.65;21.58;;;-5.50;99.90;;;;;;5024248;28;20046;-66
2024/01/12 06:05:29;;;;;;;53.08;22.23;;;-5.50;99.90;;;;;;5022428;28;20515;-65
2024/01/12 06:08:01;;;;;;;57.42;22.85;;;-5.50;99.90;;;;;;5025152;28;20518;-65
2024/01/12 06:10:33;;;;;;;55.40;20.75;;;-5.50;99.90;;;;;;5024010;28;20056;-65
2024/01/12 06:13:05;;;;;;;50.95;21.63;;;-5.70;99.90;;;;;;5028217;28;20046;-65
2024/01/12 06:15:37;;;;;;;55.10;22.75;;;-5.70;99.90;;;;;;5044541;28;20042;-65
2024/01/12 06:18:09;;;;;;;50.25;20.00;;;-5.80;99.90;;;;;;5028001;28;20131;-65
2024/01/12 06:20:41;;;;;;;53.50;21.95;;;-5.80;99.90;;;;;;5024301;28;20038;-66
2024/01/12 06:23:08;;;;;;;52.50;21.27;;;-5.80;99.90;;;;;;5023842;28;20145;-65
2024/01/12 06:25:36;;;;;;;55.58;22.20;;;-5.80;99.90;;;;;;5026437;28;20048;-66
2024/01/12 06:28:08;;;;;;;56.72;24.83;;;-5.80;99.90;;;;;;5021558;28;20100;-66
2024/01/12 06:30:40;;;;;;;48.72;20.40;;;-5.90;99.90;;;;;;5013986;28;20054;-65
2024/01/12 06:33:14;;;;;;;52.03;20.17;;;-5.90;99.90;;;;;;5027450;28;20045;-66
2024/01/12 06:35:46;;;;;;;54.65;23.80;;;-5.90;99.90;;;;;;5026700;28;20047;-66
2024/01/12 06:38:13;;;;;;;56.38;21.13;;;-6.00;99.90;;;;;;5027902;28;20045;-66
2024/01/12 06:40:45;;;;;;;58.92;21.98;;;-5.90;99.90;;;;;;5029423;28;20421;-65
2024/01/12 06:43:17;;;;;;;49.55;21.83;;;-6.00;99.90;;;;;;5029073;28;20072;-65
2024/01/12 06:45:44;;;;;;;59.22;22.85;;;-6.10;99.90;;;;;;5047466;28;20101;-65
2024/01/12 06:48:16;;;;;;;53.97;22.85;;;-6.30;99.90;;;;;;5035001;28;20592;-65
2024/01/12 06:50:48;;;;;;;56.72;22.52;;;-6.40;99.90;;;;;;5026195;28;20061;-66
2024/01/12 06:53:20;;;;;;;49.35;20.88;;;-6.40;99.90;;;;;;5012853;28;20041;-66
2024/01/12 06:55:46;;;;;;;59.42;23.33;;;-6.50;99.90;;;;;;5021452;28;20429;-66
2024/01/12 06:58:19;;;;;;;53.92;21.75;;;-6.50;99.90;;;;;;5017932;28;20057;-66
2024/01/12 07:00:46;;;;;;;44.92;21.08;;;-6.50;99.90;;;;;;5024400;28;20034;-66
2024/01/12 07:03:18;;;;;;;56.65;22.20;;;-6.60;99.90;;;;;;5042692;28;20095;-66
2024/01/12 07:05:50;;;;;;;59.95;24.23;;;-6.60;99.90;;;;;;5024631;28;20045;-65
2024/01/12 07:08:21;;;;;;;58.00;23.73;;;-6.50;99.90;;;;;;5027233;28;20981;-65
2024/01/12 07:10:53;;;;;;;54.67;23.30;;;-6.40;99.90;;;;;;5027448;28;20516;-66
2024/01/12 07:13:20;;;;;;;54.63;21.73;;;-6.50;99.90;;;;;;5043990;28;20046;-66
2024/01/12 07:15:52;;;;;;;54.27;20.90;;;-6.50;99.90;;;;;;5025983;28;20072;-65
2024/01/12 07:18:24;;;;;;;50.45;20.30;;;-6.40;99.90;;;;;;5022327;28;20053;-66
2024/01/12 07:20:51;;;;;;;51.63;22.92;;;-6.50;99.90;;;;;;5019554;28;20092;-66
2024/01/12 07:23:18;;;;;;;62.00;23.10;;;-6.60;99.90;;;;;;5023629;28;20045;-65
2024/01/12 07:25:50;;;;;;;53.95;21.95;;;-6.60;99.90;;;;;;5045948;28;20870;-66
2024/01/12 07:28:22;;;;;;;59.35;24.70;;;-6.70;99.90;;;;;;5025662;28;20045;-66
2024/01/12 07:30:54;;;;;;;57.47;22.25;;;-6.80;99.90;;;;;;5028692;28;20111;-66
2024/01/12 07:33:21;;;;;;;57.30;21.83;;;-6.70;99.90;;;;;;5030717;28;20127;-64
2024/01/12 07:35:48;;;;;;;57.40;22.10;;;-6.70;99.90;;;;;;5031022;28;20568;-66
2024/01/12 07:38:20;;;;;;;53.43;21.53;;;-6.70;99.90;;;;;;5023380;28;20077;-66
2024/01/12 07:40:47;;;;;;;59.10;23.97;;;-6.70;99.90;;;;;;5028823;28;20121;-65
2024/01/12 07:43:19;;;;;;;66.70;24.97;;;-6.70;99.90;;;;;;5037950;28;20041;-66
2024/01/12 07:45:45;;;;;;;65.43;26.27;;;-6.70;99.90;;;;;;5021447;28;20038;-66
2024/01/12 07:48:17;;;;;;;56.13;22.55;;;-6.70;99.90;;;;;;5020972;28;20061;-66
2024/01/12 07:50:50;;;;;;;53.33;21.27;;;-6.60;99.90;;;;;;5024641;28;20046;-66
2024/01/12 07:53:17;;;;;;;64.80;22.73;;;-6.50;99.90;;;;;;5024976;28;20041;-66
2024/01/12 07:55:49;;;;;;;68.25;24.50;;;-6.50;99.90;;;;;;5022669;28;20092;-65
2024/01/12 07:58:21;;;;;;;59.00;23.52;;;-6.40;99.90;;;;;;5025428;28;20048;-66
2024/01/12 08:00:53;;;;;;;64.73;25.37;;;-6.40;99.90;;;;;;5014917;28;20051;-66
2024/01/12 08:03:25;;;;;;;60.70;24.83;;;-6.30;99.90;;;;;;5028084;28;20434;-66
2024/01/12 08:05:52;;;;;;;55.33;23.40;;;-6.30;99.90;;;;;;5025143;28;20037;-66
2024/01/12 08:08:24;;;;;;;60.60;23.52;;;-6.30;99.90;;;;;;5023770;28;20196;-66
2024/01/12 08:10:51;;;;;;;56.23;22.97;;;-6.20;99.90;;;;;;5014811;28;20045;-66
2024/01/12 08:13:26;;;;;;;50.00;22.40;;;-5.90;99.90;;;;;;5014868;28;20045;-66
2024/01/12 08:15:57;;;;;;;55.97;23.53;;;-5.80;99.90;;;;;;5026320;28;20592;-66
2024/01/12 08:18:27;;;;;;;61.53;24.25;;;-5.70;99.90;;;;;;5027685;28;20046;-66
2024/01/12 08:20:54;;;;;;;57.75;23.48;;;-5.60;99.90;;;;;;5020085;28;20042;-66
2024/01/12 08:23:25;;;;;;;55.05;24.73;;;-5.60;99.90;;;;;;5024257;28;20052;-66
2024/01/12 08:25:52;;;;;;;66.13;25.35;;;-5.60;99.90;;;;;;5022383;28;20045;-65
2024/01/12 08:28:19;;;;;;;58.10;23.67;;;-5.50;99.90;;;;;;5021250;28;20125;-66
2024/01/12 08:30:51;;;;;;;57.92;25.85;;;-5.50;99.90;;;;;;5034261;28;20046;-66
2024/01/12 08:33:23;;;;;;;65.50;26.83;;;-5.50;99.90;;;;;;5026433;28;20033;-66
2024/01/12 08:35:49;;;;;;;66.15;24.13;;;-5.50;99.90;;;;;;5014079;28;20081;-66
2024/01/12 08:38:21;;;;;;;62.90;25.65;;;-5.50;99.90;;;;;;5023424;28;20494;-66
2024/01/12 08:40:49;;;;;;;62.00;26.70;;;-5.50;99.90;;;;;;5011942;28;20141;-66
2024/01/12 08:43:21;;;;;;;58.20;24.33;;;-5.50;99.90;;;;;;5013045;28;20050;-66
2024/01/12 08:45:48;;;;;;;75.82;29.42;;;-5.50;99.90;;;;;;5015033;28;20038;-66
2024/01/12 08:48:20;;;;;;;63.28;30.33;;;-5.50;99.90;;;;;;5029340;28;20017;-65
2024/01/12 08:50:52;;;;;;;70.25;29.08;;;-5.50;99.90;;;;;;5047257;28;20109;-65
2024/01/12 08:53:19;;;;;;;61.85;29.00;;;-5.40;99.90;;;;;;5050415;28;20124;-65
2024/01/12 08:55:50;;;;;;;60.75;27.40;;;-5.50;99.90;;;;;;5019763;28;20789;-66
2024/01/12 08:58:22;;;;;;;74.32;28.77;;;-5.40;99.90;;;;;;5021516;28;20037;-66
2024/01/12 09:00:54;;;;;;;78.32;32.55;;;-5.40;99.90;;;;;;5023108;28;20038;-66
2024/01/12 09:03:21;;;;;;;73.40;29.35;;;-5.40;99.90;;;;;;5028064;28;20069;-66
2024/01/12 09:05:48;;;;;;;65.30;27.13;;;-5.40;99.90;;;;;;5012717;28;20042;-66
2024/01/12 09:08:20;;;;;;;67.80;26.48;;;-5.40;99.90;;;;;;5012188;28;20057;-66
2024/01/12 09:10:52;;;;;;;69.15;24.98;;;-5.30;99.90;;;;;;5026527;28;20042;-66
2024/01/12 09:13:24;;;;;;;71.10;28.60;;;-5.30;99.90;;;;;;5013867;28;20042;-66
2024/01/12 09:15:51;;;;;;;73.05;29.65;;;-5.20;99.90;;;;;;5020932;28;20046;-66
2024/01/12 09:18:23;;;;;;;63.63;25.80;;;-5.20;99.90;;;;;;5021689;28;20037;-66
2024/01/12 09:20:54;;;;;;;67.82;27.20;;;-5.20;99.90;;;;;;5020508;28;20042;-66
2024/01/12 09:23:26;;;;;;;60.20;24.92;;;-5.20;99.90;;;;;;5021309;28;20045;-65
2024/01/12 09:25:58;;;;;;;65.25;25.95;;;-5.20;99.90;;;;;;5021336;28;20057;-65
2024/01/12 09:28:30;;;;;;;98.10;39.03;;;-5.10;99.90;;;;;;5009591;28;20065;-65
2024/01/12 09:31:02;;;;;;;72.68;30.63;;;-5.10;99.90;;;;;;5024378;28;20509;-65
2024/01/12 09:33:30;;;;;;;68.82;27.17;;;-5.00;99.90;;;;;;5010589;28;20129;-65
2024/01/12 09:36:03;;;;;;;66.15;27.08;;;-4.90;99.90;;;;;;5021190;28;20100;-65
2024/01/12 09:38:35;;;;;;;58.53;20.63;;;-4.90;99.90;;;;;;5014069;28;20061;-65
2024/01/12 09:41:02;;;;;;;68.60;27.27;;;-4.80;99.90;;;;;;5014564;28;20042;-65
2024/01/12 09:43:36;;;;;;;68.88;28.73;;;-4.70;99.90;;;;;;5020836;28;20037;-65
2024/01/12 09:46:09;;;;;;;78.47;31.25;;;-4.60;99.90;;;;;;5020259;28;20052;-65
2024/01/12 09:48:41;;;;;;;57.90;23.00;;;-4.30;99.90;;;;;;5020831;28;20048;-65
2024/01/12 09:51:16;;;;;;;71.05;30.20;;;-3.80;99.90;;;;;;5020144;28;20141;-66
2024/01/12 09:53:48;;;;;;;79.18;32.17;;;-3.20;99.90;;;;;;5020602;28;20128;-66
2024/01/12 09:56:20;;;;;;;78.47;30.02;;;-3.10;99.90;;;;;;5021098;28;20391;-66
2024/01/12 09:58:52;;;;;;;70.68;28.92;;;-3.20;99.90;;;;;;5025975;28;20117;-65
2024/01/12 10:01:24;;;;;;;79.38;31.77;;;-3.30;99.90;;;;;;5024564;28;20041;-65
2024/01/12 10:03:51;;;;;;;247.07;79.15;;;-3.50;99.90;;;;;;5017120;28;20502;-66
2024/01/12 10:06:23;;;;;;;79.80;33.97;;;-3.60;99.90;;;;;;5015779;28;20509;-65
2024/01/12 10:08:54;;;;;;;70.72;29.27;;;-3.70;99.90;;;;;;5019252;28;20045;-65
2024/01/12 10:11:22;;;;;;;71.70;31.80;;;-3.70;99.90;;;;;;5037484;28;20581;-68
2024/01/12 10:13:53;;;;;;;70.00;29.83;;;-3.80;99.90;;;;;;5019867;28;20156;-65
2024/01/12 10:16:28;;;;;;;68.88;30.10;;;-3.80;99.90;;;;;;5038861;28;20498;-65
2024/01/12 10:19:00;;;;;;;71.45;30.48;;;-3.80;99.90;;;;;;5015804;28;20049;-65
2024/01/12 10:21:27;;;;;;;79.45;32.58;;;-3.80;99.90;;;;;;5004705;28;20073;-65
2024/01/12 10:24:05;;;;;;;79.57;32.17;;;-3.80;99.90;;;;;;5035474;28;20498;-65
2024/01/12 10:26:37;;;;;;;70.50;30.50;;;-3.80;99.90;;;;;;5026147;28;20052;-65
2024/01/12 10:29:11;;;;;;;80.22;32.65;;;-3.90;99.90;;;;;;5016359;28;20049;-65
2024/01/12 10:31:44;;;;;;;75.50;30.70;;;-4.00;99.90;;;;;;5018254;28;20414;-65
2024/01/12 10:34:16;;;;;;;67.28;27.30;;;-4.00;99.90;;;;;;5012978;28;20515;-66
2024/01/12 10:36:49;;;;;;;79.97;31.95;;;-3.90;99.90;;;;;;5014994;28;20146;-65
2024/01/12 10:39:22;;;;;;;;;;;-3.90;99.90;;;;;;5033191;28;20048;-65
2024/01/12 10:42:00;;;;;;;80.47;32.65;;;-3.80;99.90;;;;;;5027867;28;19964;-65
2024/01/12 10:44:34;;;;;;;83.15;32.72;;;-3.80;99.90;;;;;;5030369;28;20082;-65
2024/01/12 10:47:32;;;;;;;80.38;31.92;;;-3.80;99.90;;;;;;5026861;28;20052;-64
2024/01/12 10:50:09;;;;;;;102.00;41.45;;;-3.80;99.90;;;;;;5020071;28;20521;-66
2024/01/12 10:52:54;;;;;;;83.97;35.30;;;-3.70;99.90;;;;;;5036118;28;20025;-63
2024/01/12 10:55:33;;;;;;;93.93;36.03;;;-3.70;99.90;;;;;;5056331;28;20132;-65
2024/01/12 10:58:02;;;;;;;79.95;32.53;;;-3.70;99.90;;;;;;5022272;28;20409;-65
2024/01/12 11:00:34;;;;;;;80.82;33.95;;;-3.60;99.90;;;;;;5030041;28;20072;-65
2024/01/12 11:03:03;;;;;;;78.00;33.67;;;-3.50;99.90;;;;;;5040090;28;20044;-66
2024/01/12 11:05:36;;;;;;;88.90;35.67;;;-3.50;99.90;;;;;;5030191;28;20034;-65
2024/01/12 11:08:09;;;;;;;85.70;36.03;;;-3.50;99.90;;;;;;5026893;28;20041;-65
2024/01/12 11:10:48;;;;;;;83.55;33.58;;;-3.50;99.90;;;;;;5024990;28;20383;-65
2024/01/12 11:13:21;;;;;;;88.93;34.28;;;-3.50;99.90;;;;;;5025594;28;20128;-66
2024/01/12 11:15:54;;;;;;;;;;;-3.50;99.90;;;;;;5024882;28;20136;-65
2024/01/12 11:18:27;;;;;;;74.38;30.55;;;-3.40;99.90;;;;;;5026165;28;19948;-65
2024/01/12 11:21:02;;;;;;;64.60;26.38;;;-3.40;99.90;;;;;;5021327;28;20052;-66
2024/01/12 11:23:40;;;;;;;89.97;35.38;;;-3.50;99.90;;;;;;5030400;28;20038;-65
2024/01/12 11:26:12;;;;;;;78.60;33.08;;;-3.50;99.90;;;;;;5018206;28;20037;-65
2024/01/12 11:28:44;;;;;;;83.10;35.65;;;-3.50;99.90;;;;;;5023484;28;20445;-65
2024/01/12 11:31:11;;;;;;;80.45;33.25;;;-3.50;99.90;;;;;;5041412;28;20051;-65
2024/01/12 11:33:45;;;;;;;79.55;32.38;;;-3.50;99.90;;;;;;5027424;28;20042;-66
2024/01/12 11:36:17;;;;;;;77.55;33.38;;;-3.40;99.90;;;;;;5031777;28;20049;-65
2024/01/12 11:38:55;;;;;;;79.45;30.45;;;-3.40;99.90;;;;;;5018225;28;20048;-65
2024/01/12 11:41:28;;;;;;;81.68;34.42;;;-3.30;99.90;;;;;;5029144;28;20496;-66
2024/01/12 11:43:56;;;;;;;85.78;34.38;;;-3.30;99.90;;;;;;5027335;28;20045;-65
2024/01/12 11:46:29;;;;;;;73.80;32.67;;;-3.20;99.90;;;;;;5023125;28;20103;-66
2024/01/12 11:49:04;;;;;;;85.95;35.28;;;-3.20;99.90;;;;;;5024310;28;20041;-65
2024/01/12 11:51:31;;;;;;;119.53;45.15;;;-3.10;99.90;;;;;;5025559;28;20065;-66
2024/01/12 11:54:03;;;;;;;86.75;36.95;;;-3.00;99.90;;;;;;5026155;28;20103;-66
2024/01/12 11:56:30;;;;;;;87.95;36.92;;;-3.00;99.90;;;;;;5024398;28;20049;-66
2024/01/12 11:59:02;;;;;;;78.05;33.97;;;-3.00;99.90;;;;;;5036318;28;20073;-66
2024/01/12 12:01:31;;;;;;;85.40;36.95;;;-3.00;99.90;;;;;;5040592;28;20156;-65
2024/01/12 12:04:03;;;;;;;75.32;27.92;;;-3.00;99.90;;;;;;5026525;28;20052;-66
2024/01/12 12:06:35;;;;;;;75.55;32.47;;;-3.10;99.90;;;;;;5025624;28;20045;-66
2024/01/12 12:09:07;;;;;;;85.13;34.97;;;-3.10;99.90;;;;;;5026538;28;20041;-65
2024/01/12 12:11:34;;;;;;;86.68;35.22;;;-3.10;99.90;;;;;;5016768;28;20050;-65
2024/01/12 12:14:02;;;;;;;86.72;33.88;;;-3.10;99.90;;;;;;5032662;28;20041;-65
2024/01/12 12:16:34;;;;;;;85.05;34.65;;;-3.10;99.90;;;;;;5026064;28;20056;-65
2024/01/12 12:19:06;;;;;;;77.97;33.03;;;-3.20;99.90;;;;;;5024011;28;20045;-65
2024/01/12 12:21:38;;;;;;;84.13;32.78;;;-3.10;99.90;;;;;;5024027;28;20057;-65
2024/01/12 12:24:05;;;;;;;83.22;34.50;;;-3.20;99.90;;;;;;5025462;28;20038;-65
2024/01/12 12:26:32;;;;;;;77.28;33.67;;;-3.10;99.90;;;;;;5023458;28;20041;-66
2024/01/12 12:28:59;;;;;;;74.38;32.20;;;-3.20;99.90;;;;;;5026017;28;20042;-65
2024/01/12 12:31:31;;;;;;;78.90;33.67;;;-3.20;99.90;;;;;;5020859;28;20070;-66
2024/01/12 12:33:58;;;;;;;81.88;34.47;;;-3.20;99.90;;;;;;5033848;28;20041;-65
2024/01/12 12:36:31;;;;;;;71.75;31.63;;;-3.20;99.90;;;;;;5024417;28;20041;-66
2024/01/12 12:39:04;;;;;;;81.10;32.97;;;-3.20;99.90;;;;;;5019947;28;20045;-65
2024/01/12 12:41:35;;;;;;;85.78;34.10;;;-3.30;99.90;;;;;;5034610;28;20067;-66
2024/01/12 12:44:07;;;;;;;73.80;31.52;;;-3.30;99.90;;;;;;5021432;28;20458;-65
2024/01/12 12:46:40;;;;;;;81.20;32.08;;;-3.30;99.90;;;;;;5021133;28;20497;-66